Patricios, Argentina
Current Conditions -  °F | °C
As of 2:00 AM on Sunday 21 Dec 2014 (Local Time) from SAEZ Reporting Station
Broken Clouds Broken Clouds  
Wind Chill: 61°   Ceiling: 2700
Heat Index: 61°   Visibility: 6mi
Dew Point: 57°   Wind: 18mph
Humidity: 88%   Direction: 170°S
Pressure: 29.71"   Gusts: NA
Location:  35.45°S, 60.71°W
Report Text: SAEZ 210500Z 17016KT 150V210 9999 SCT010 BKN027 16/14 Q1006
Loading
Personal Weather Stations






























Interactive Weather Map New forecast layout! Learn more

10-Day Weather Forecast

Advertisements
Track Severe Weather on mobile